Terminal Aerodrome Forecast
Issued by NWS

Home | Current Version | Previous Version | Graphics & Text | Print | Product List | Glossary On
Versions: 1 2 3 4 5 6 7 8 9 10 11 12 13 14 15
000
FTUS43 KICT 031720
TAFCNU
TAF
KCNU 031720Z 0318/0418 18012G20KT P6SM SKC
     FM040100 15007KT P6SM FEW200
     FM041500 18014KT P6SM FEW200=

USA.gov is the U.S. government's official web portal to all federal, state and local government web resources and services.